Ault Field, Washington
Current Conditions -  °F | °C
As of 6:56 PM on Monday 22 Dec 2014 (Local Time) from KNUW Reporting Station
Broken Clouds Broken Clouds  
Wind Chill:   Ceiling: 15000
Heat Index:   Visibility: 10mi
Dew Point:   Wind: 8mph
Humidity: 79%   Direction: 100°E
Pressure: 30.36"   Gusts: NA
Location:  48.3182°N, 122.634°W
Report Text: KNUW 230256Z 10007KT 10SM FEW030 SCT050 BKN150 08/04 A3036 RMK AO2 SLP286 T00780044 58005 VISNO E $
Loading
Personal Weather Stations






























Interactive Weather Map New forecast layout! Learn more

10-Day Weather Forecast

Advertisements
Track Severe Weather on mobile